Homesville, Pennsylvania
Current Conditions -  °F | °C
As of 1:55 AM on Monday 24 Nov 2014 (Local Time) from KHZL Reporting Station
Light Rain Light Rain  
Wind Chill: 50°   Ceiling: 500
Heat Index: 50°   Visibility: 7mi
Dew Point: 48°   Wind: 14mph
Humidity: 94%   Direction: 120°ESE
Pressure: 29.74"   Gusts: 25mph
Location:  40.7564°N, 76.3531°W
Report Text: KHZL 240655Z AUTO 12012G22KT 7SM -RA OVC005 10/09 A2974 RMK AO2
Loading
Personal Weather Stations






























Interactive Weather Map New forecast layout! Learn more

10-Day Weather Forecast

Advertisements
Track Severe Weather on mobile